Time;durP1;ratioP1;P1;durP2;ratioP2;P2;SDS_P1;SDS_P2;PMS_P1;PMS_P2;Temp;Humidity;BMP_temperature;BMP_pressure;BME280_temperature;BME280_humidity;BME280_pressure;Samples;Min_cycle;Max_cycle;Signal;HPM_P1;HPM_P2
2023/06/19 00:01:37;;;;;;;;;;;;;;;15.56;75.00;101163.13;106930;1262;124772;-82
2023/06/19 00:04:03;;;;;;;;;;;;;;;15.51;75.05;101161.14;107173;1264;61333;-85
2023/06/19 00:06:30;;;;;;;;;;;;;;;15.48;75.22;101164.80;107135;1262;125286;-82
2023/06/19 00:08:56;;;;;;;;;;;;;;;15.44;75.38;101166.35;107303;1261;59986;-83
2023/06/19 00:11:24;;;;;;;;;;;;;;;15.41;75.49;101170.05;107431;1262;59856;-82
2023/06/19 00:13:52;;;;;;;;;;;;;;;15.38;75.65;101174.07;107284;1260;125595;-83
2023/06/19 00:16:27;;;;;;;;;;;;;;;15.36;75.74;101179.17;107404;1262;72936;-83
2023/06/19 00:18:55;;;;;;;;;;;;;;;15.35;75.88;101185.35;107224;1265;124974;-83
2023/06/19 00:21:26;;;;;;;;;;;;;;;15.34;75.95;101188.35;107200;1261;60102;-83
2023/06/19 00:23:53;;;;;;;;;;;;;;;15.32;75.94;101188.69;107020;1261;125129;-83
2023/06/19 00:26:22;;;;;;;;;;;;;;;15.31;76.02;101195.02;106883;1261;66257;-84
2023/06/19 00:28:49;;;;;;;;;;;;;;;15.29;76.10;101196.24;106857;1260;73147;-84
2023/06/19 00:31:16;;;;;;;;;;;;;;;15.29;76.19;101197.83;107317;1261;125519;-85
2023/06/19 00:33:43;;;;;;;;;;;;;;;15.28;76.19;101196.94;107328;1260;60966;-84
2023/06/19 00:36:26;;;;;;;;;;;;;;;15.27;76.29;101198.88;107199;1260;125764;-84
2023/06/19 00:38:58;;;;;;;;;;;;;;;15.27;76.36;101200.98;107145;1260;67018;-84
2023/06/19 00:41:25;;;;;;;;;;;;;;;15.27;76.45;101198.52;107382;1261;72591;-85
2023/06/19 00:43:54;;;;;;;;;;;;;;;15.27;76.52;101193.73;107138;1265;125291;-83
2023/06/19 00:46:20;;;;;;;;;;;;;;;15.27;76.59;101196.56;106943;1261;59872;-83
2023/06/19 00:48:47;;;;;;;;;;;;;;;15.26;76.52;101198.85;106878;1261;125478;-82
2023/06/19 00:51:14;;;;;;;;;;;;;;;15.24;76.55;101200.42;107273;1262;66924;-82
2023/06/19 00:53:40;;;;;;;;;;;;;;;15.23;76.56;101201.83;107369;1265;73267;-82
2023/06/19 00:56:06;;;;;;;;;;;;;;;15.24;76.61;101201.12;107367;1261;125226;-80
2023/06/19 00:58:32;;;;;;;;;;;;;;;15.23;76.57;101198.82;107569;1265;59577;-80
2023/06/19 01:00:59;;;;;;;;;;;;;;;15.22;76.56;101197.39;107603;1265;125861;-80
2023/06/19 01:03:26;;;;;;;;;;;;;;;15.20;76.54;101192.58;107684;1261;59598;-80
2023/06/19 01:05:54;;;;;;;;;;;;;;;15.19;76.46;101193.63;107444;1265;127428;-82
2023/06/19 01:08:39;;;;;;;;;;;;;;;15.16;76.52;101193.44;107307;1261;60371;-82
2023/06/19 01:11:05;;;;;;;;;;;;;;;15.14;76.61;101193.58;107737;1262;61434;-82
2023/06/19 01:13:36;;;;;;;;;;;;;;;15.13;76.67;101191.44;107399;1266;125460;-82
2023/06/19 01:16:03;;;;;;;;;;;;;;;15.11;76.68;101189.83;107287;1265;66807;-82
2023/06/19 01:18:29;;;;;;;;;;;;;;;15.08;76.71;101186.93;107124;1263;72254;-82
2023/06/19 01:20:56;;;;;;;;;;;;;;;15.06;76.81;101189.21;106985;1262;60475;-82
2023/06/19 01:23:23;;;;;;;;;;;;;;;15.04;76.80;101188.13;107099;1260;62186;-82
2023/06/19 01:25:50;;;;;;;;;;;;;;;15.02;76.98;101191.28;107312;1262;125018;-82
2023/06/19 01:28:16;;;;;;;;;;;;;;;15.01;76.88;101195.34;107491;1260;67162;-82
2023/06/19 01:30:42;;;;;;;;;;;;;;;14.99;76.87;101193.36;108412;1265;125608;-82
2023/06/19 01:33:20;;;;;;;;;;;;;;;14.97;76.88;101187.15;108548;1267;59425;-85
2023/06/19 01:35:47;;;;;;;;;;;;;;;14.96;76.98;101187.33;108083;1266;60519;-85
2023/06/19 01:38:14;;;;;;;;;;;;;;;14.95;76.95;101186.78;107187;1261;125304;-85
2023/06/19 01:40:48;;;;;;;;;;;;;;;14.95;76.95;101190.13;107163;1261;67070;-85
2023/06/19 01:43:16;;;;;;;;;;;;;;;14.93;76.91;101191.17;106865;1261;125113;-85
2023/06/19 01:45:42;;;;;;;;;;;;;;;14.92;76.97;101185.84;106987;1265;61463;-85
2023/06/19 01:48:09;;;;;;;;;;;;;;;14.90;76.93;101187.23;107331;1264;125278;-85
2023/06/19 01:50:37;;;;;;;;;;;;;;;14.88;76.99;101194.25;107226;1261;75104;-85
2023/06/19 01:53:15;;;;;;;;;;;;;;;14.87;77.03;101193.02;107214;1261;66025;-85
2023/06/19 01:55:47;;;;;;;;;;;;;;;14.86;77.05;101189.48;106995;1261;125020;-85
2023/06/19 01:58:14;;;;;;;;;;;;;;;14.85;77.08;101186.98;106851;1266;61746;-85
2023/06/19 02:00:40;;;;;;;;;;;;;;;14.82;77.01;101188.52;106933;1265;125611;-85
2023/06/19 02:03:06;;;;;;;;;;;;;;;14.81;77.11;101189.56;107352;1263;59623;-85
2023/06/19 02:05:34;;;;;;;;;;;;;;;14.80;77.09;101192.73;107991;1260;59779;-86
2023/06/19 02:08:02;;;;;;;;;;;;;;;14.79;77.10;101193.27;106866;1261;126138;-86
2023/06/19 02:10:29;;;;;;;;;;;;;;;14.77;77.05;101194.98;107252;1260;61739;-86
2023/06/19 02:12:55;;;;;;;;;;;;;;;14.75;77.04;101191.23;107056;1260;124968;-86
2023/06/19 02:15:29;;;;;;;;;;;;;;;14.74;77.12;101188.23;107122;1261;59896;-86
2023/06/19 02:17:55;;;;;;;;;;;;;;;14.73;77.18;101186.47;107148;1261;125258;-86
2023/06/19 02:20:24;;;;;;;;;;;;;;;14.74;77.28;101186.66;107419;1260;61324;-84
2023/06/19 02:22:56;;;;;;;;;;;;;;;14.76;77.20;101186.13;107480;1260;60468;-84
2023/06/19 02:25:24;;;;;;;;;;;;;;;14.75;77.21;101191.60;107260;1261;124937;-84
2023/06/19 02:27:53;;;;;;;;;;;;;;;14.74;77.26;101195.66;107118;1264;75338;-85
2023/06/19 02:30:21;;;;;;;;;;;;;;;14.74;77.32;101188.23;107008;1261;125176;-85
2023/06/19 02:32:47;;;;;;;;;;;;;;;14.76;77.39;101188.09;106889;1261;71331;-85
2023/06/19 02:35:15;;;;;;;;;;;;;;;14.79;77.42;101186.54;106977;1261;61429;-85
2023/06/19 02:37:47;;;;;;;;;;;;;;;14.82;77.40;101187.46;106835;1260;124970;-83
2023/06/19 02:40:15;;;;;;;;;;;;;;;14.84;77.38;101190.14;106746;1260;74537;-83
2023/06/19 02:42:44;;;;;;;;;;;;;;;14.85;77.25;101192.82;106840;1261;125033;-83
2023/06/19 02:45:10;;;;;;;;;;;;;;;14.88;77.43;101190.20;107204;1260;72918;-84
2023/06/19 02:47:38;;;;;;;;;;;;;;;14.92;77.34;101189.73;107257;1260;60780;-83
2023/06/19 02:50:07;;;;;;;;;;;;;;;14.94;77.28;101183.22;106824;1260;125078;-84
2023/06/19 02:52:33;;;;;;;;;;;;;;;14.98;77.27;101179.91;106872;1267;75031;-84
2023/06/19 02:55:00;;;;;;;;;;;;;;;15.02;77.25;101181.73;107000;1261;125128;-84
2023/06/19 02:57:34;;;;;;;;;;;;;;;15.05;77.14;101177.02;106988;1260;71360;-85
2023/06/19 03:00:09;;;;;;;;;;;;;;;15.09;77.15;101173.35;106914;1260;125647;-85
2023/06/19 03:02:35;;;;;;;;;;;;;;;15.12;76.93;101169.33;107094;1260;60316;-84
2023/06/19 03:05:02;;;;;;;;;;;;;;;15.14;76.94;101168.48;107338;1260;60467;-84
2023/06/19 03:07:29;;;;;;;;;;;;;;;15.19;76.99;101164.28;107252;1261;125048;-83
2023/06/19 03:10:02;;;;;;;;;;;;;;;15.25;76.99;101163.66;107556;1260;61167;-83
2023/06/19 03:12:28;;;;;;;;;;;;;;;15.33;76.97;101161.98;107480;1260;125183;-81
2023/06/19 03:14:55;;;;;;;;;;;;;;;15.43;76.95;101166.53;107244;1261;59652;-81
2023/06/19 03:17:21;;;;;;;;;;;;;;;15.57;77.04;101169.15;107334;1263;61998;-82
2023/06/19 03:19:47;;;;;;;;;;;;;;;15.72;76.98;101167.20;107357;1260;125860;-82
2023/06/19 03:22:13;;;;;;;;;;;;;;;15.87;76.86;101165.97;107554;1260;60447;-82
2023/06/19 03:24:39;;;;;;;;;;;;;;;16.03;76.73;101163.27;106786;1260;125870;-82
2023/06/19 03:27:06;;;;;;;;;;;;;;;16.21;76.72;101158.30;107106;1260;59273;-82
2023/06/19 03:29:38;;;;;;;;;;;;;;;16.51;77.11;101159.96;107122;1260;59414;-81
2023/06/19 03:32:05;;;;;;;;;;;;;;;16.88;76.77;101161.09;107088;1261;125162;-82
2023/06/19 03:34:31;;;;;;;;;;;;;;;17.15;75.94;101159.48;107045;1260;72767;-82
2023/06/19 03:36:57;;;;;;;;;;;;;;;17.25;75.15;101160.94;107133;1260;125004;-83
2023/06/19 03:39:24;;;;;;;;;;;;;;;17.28;74.67;101159.52;107041;1264;61267;-82
2023/06/19 03:41:51;;;;;;;;;;;;;;;17.39;74.70;101157.63;106886;1266;73878;-86
2023/06/19 03:44:17;;;;;;;;;;;;;;;17.60;74.44;101164.42;106944;1261;60253;-86
2023/06/19 03:46:47;;;;;;;;;;;;;;;17.89;74.50;101165.75;107293;1263;61248;-84
2023/06/19 03:49:20;;;;;;;;;;;;;;;19.02;76.48;101167.78;107067;1263;125401;-84
2023/06/19 03:51:46;;;;;;;;;;;;;;;21.15;76.51;101163.20;107276;1260;60788;-84
2023/06/19 03:54:12;;;;;;;;;;;;;;;23.16;74.17;101166.80;107120;1260;124522;-83
2023/06/19 03:56:39;;;;;;;;;;;;;;;24.90;71.60;101162.33;107038;1260;61083;-82
2023/06/19 03:59:05;;;;;;;;;;;;;;;26.48;68.96;101162.49;107308;1260;60064;-81
2023/06/19 04:01:43;;;;;;;;;;;;;;;27.91;65.86;101162.05;107267;1260;61024;-84
2023/06/19 04:04:09;;;;;;;;;;;;;;;28.97;63.09;101162.58;107216;1260;61202;-82
2023/06/19 04:06:36;;;;;;;;;;;;;;;30.05;60.90;101165.11;107423;1260;125127;-83
2023/06/19 04:09:02;;;;;;;;;;;;;;;31.08;58.86;101169.10;107104;1260;61219;-83
2023/06/19 04:11:28;;;;;;;;;;;;;;;32.09;56.64;101171.40;107159;1260;62179;-83
2023/06/19 04:13:56;;;;;;;;;;;;;;;32.90;54.75;101170.19;106975;1262;124790;-84
2023/06/19 04:16:24;;;;;;;;;;;;;;;33.65;53.03;101167.65;107166;1261;60187;-84
2023/06/19 04:18:51;;;;;;;;;;;;;;;34.48;51.35;101174.70;107125;1260;124897;-81
2023/06/19 04:21:18;;;;;;;;;;;;;;;35.27;49.55;101174.11;107117;1261;60385;-80
2023/06/19 04:23:44;;;;;;;;;;;;;;;35.96;47.77;101177.23;107227;1260;59977;-78
2023/06/19 04:26:10;;;;;;;;;;;;;;;36.55;46.47;101172.64;107159;1264;125104;-80
2023/06/19 04:28:36;;;;;;;;;;;;;;;37.11;44.88;101175.58;107082;1260;61458;-82
2023/06/19 04:31:02;;;;;;;;;;;;;;;37.71;43.69;101177.30;107457;1260;124722;-82
2023/06/19 04:33:30;;;;;;;;;;;;;;;38.25;42.57;101179.73;107531;1260;60484;-80
2023/06/19 04:35:56;;;;;;;;;;;;;;;38.79;41.30;101177.44;107257;1261;60344;-79
2023/06/19 04:38:23;;;;;;;;;;;;;;;39.36;40.32;101179.40;107269;1260;59834;-80
2023/06/19 04:40:53;;;;;;;;;;;;;;;39.86;39.18;101179.27;107250;1260;59904;-80
2023/06/19 04:43:19;;;;;;;;;;;;;;;40.24;36.92;101179.79;107251;1260;124815;-82
2023/06/19 04:45:46;;;;;;;;;;;;;;;40.58;37.12;101179.55;107079;1261;61089;-83
2023/06/19 04:48:15;;;;;;;;;;;;;;;40.92;36.37;101179.08;106952;1260;124442;-85
2023/06/19 04:50:41;;;;;;;;;;;;;;;41.29;35.70;101177.65;107245;1260;61240;-82
2023/06/19 04:53:10;;;;;;;;;;;;;;;41.70;34.97;101176.33;107398;1260;61324;-87
2023/06/19 04:55:49;;;;;;;;;;;;;;;42.21;34.46;101177.86;106994;1263;124881;-84
2023/06/19 04:58:27;;;;;;;;;;;;;;;42.62;33.53;101178.66;107003;1260;60665;-85
2023/06/19 05:01:05;;;;;;;;;;;;;;;42.95;32.70;101179.02;106815;1260;124470;-82
2023/06/19 05:03:41;;;;;;;;;;;;;;;43.18;32.11;101183.45;106882;1260;61652;-87
2023/06/19 05:06:09;;;;;;;;;;;;;;;43.42;31.49;101186.23;106895;1260;125987;-82
2023/06/19 05:08:36;;;;;;;;;;;;;;;43.65;30.87;101186.29;107303;1260;66061;-83
2023/06/19 05:11:02;;;;;;;;;;;;;;;43.97;30.32;101181.89;107258;1260;59531;-83
2023/06/19 05:13:30;;;;;;;;;;;;;;;44.21;29.81;101181.81;107241;1260;124273;-85
2023/06/19 05:15:56;;;;;;;;;;;;;;;44.46;29.26;101179.65;107285;1260;59363;-82
2023/06/19 05:18:43;;;;;;;;;;;;;;;44.65;28.68;101179.00;106903;1261;124454;-84
2023/06/19 05:21:10;;;;;;;;;;;;;;;44.74;28.38;101178.91;106975;1260;65871;-82
2023/06/19 05:23:38;;;;;;;;;;;;;;;44.90;28.01;101179.83;106927;1260;61305;-83
2023/06/19 05:26:06;;;;;;;;;;;;;;;45.14;27.50;101177.48;106882;1260;124273;-84
2023/06/19 05:28:32;;;;;;;;;;;;;;;45.33;27.17;101176.67;107090;1261;59875;-84
2023/06/19 05:30:59;;;;;;;;;;;;;;;45.69;26.86;101179.77;107067;1260;124669;-84
2023/06/19 05:33:26;;;;;;;;;;;;;;;45.94;26.41;101180.88;107482;1261;65875;-82
2023/06/19 05:35:56;;;;;;;;;;;;;;;46.08;26.29;101184.59;106990;1260;59392;-85
2023/06/19 05:38:25;;;;;;;;;;;;;;;46.27;25.96;101184.35;106830;1261;63814;-82
2023/06/19 05:40:52;;;;;;;;;;;;;;;46.21;25.51;101182.13;106956;1260;60051;-85
2023/06/19 05:43:19;;;;;;;;;;;;;;;45.00;24.75;101182.11;107265;1261;124966;-85
2023/06/19 05:45:45;;;;;;;;;;;;;;;42.59;25.08;101184.32;107456;1260;64812;-85
2023/06/19 05:48:12;;;;;;;;;;;;;;;40.18;26.05;101187.25;107270;1260;124668;-85
2023/06/19 05:50:38;;;;;;;;;;;;;;;38.05;27.07;101187.91;107313;1260;61257;-85
2023/06/19 05:53:10;;;;;;;;;;;;;;;36.28;28.40;101191.27;107012;1265;61655;-84
2023/06/19 05:55:37;;;;;;;;;;;;;;;34.79;29.86;101190.80;107110;1260;124821;-84
2023/06/19 05:58:03;;;;;;;;;;;;;;;33.53;30.97;101192.95;106944;1260;61205;-85
2023/06/19 06:00:31;;;;;;;;;;;;;;;32.40;31.93;101192.98;106868;1262;124525;-84
2023/06/19 06:03:01;;;;;;;;;;;;;;;31.41;32.97;101199.06;107227;1260;72133;-84
2023/06/19 06:05:29;;;;;;;;;;;;;;;30.65;34.01;101201.08;107147;1260;61303;-84
2023/06/19 06:07:55;;;;;;;;;;;;;;;29.97;34.96;101200.32;107030;1260;124576;-84
2023/06/19 06:10:22;;;;;;;;;;;;;;;29.29;35.38;101202.95;107099;1260;61790;-84
2023/06/19 06:12:48;;;;;;;;;;;;;;;28.69;36.17;101198.71;107002;1260;124393;-84
2023/06/19 06:15:15;;;;;;;;;;;;;;;28.21;36.58;101197.48;106788;1264;61407;-85
2023/06/19 06:17:48;;;;;;;;;;;;;;;27.82;37.15;101203.40;107121;1261;59808;-84
2023/06/19 06:20:16;;;;;;;;;;;;;;;27.45;37.94;101202.64;107011;1260;124587;-84
2023/06/19 06:22:42;;;;;;;;;;;;;;;27.15;38.46;101204.28;107326;1260;73242;-84
2023/06/19 06:25:10;;;;;;;;;;;;;;;26.87;39.02;101204.04;107215;1260;124344;-84
2023/06/19 06:27:36;;;;;;;;;;;;;;;26.60;39.21;101205.85;107152;1260;72683;-86
2023/06/19 06:30:05;;;;;;;;;;;;;;;26.35;39.68;101204.70;107101;1260;126936;-83
2023/06/19 06:32:39;;;;;;;;;;;;;;;26.09;40.25;101203.77;107191;1261;61677;-83
2023/06/19 06:35:06;;;;;;;;;;;;;;;25.88;40.57;101203.17;107107;1260;74748;-84
2023/06/19 06:37:32;;;;;;;;;;;;;;;25.74;41.12;101204.66;107093;1260;124589;-84
2023/06/19 06:39:59;;;;;;;;;;;;;;;25.61;41.27;101205.41;107165;1260;61148;-84
2023/06/19 06:42:26;;;;;;;;;;;;;;;25.40;41.43;101209.11;107038;1260;124650;-84
2023/06/19 06:44:58;;;;;;;;;;;;;;;25.20;41.89;101206.77;107408;1260;61080;-84
2023/06/19 06:47:26;;;;;;;;;;;;;;;25.10;42.34;101204.19;107289;1260;74808;-84
2023/06/19 06:49:53;;;;;;;;;;;;;;;25.02;42.49;101205.11;106841;1260;124610;-85
2023/06/19 06:52:27;;;;;;;;;;;;;;;24.90;42.75;101205.28;106927;1260;60903;-84
2023/06/19 06:54:56;;;;;;;;;;;;;;;24.87;43.32;101205.36;106867;1261;124294;-84
2023/06/19 06:57:23;;;;;;;;;;;;;;;24.86;43.40;101206.98;107064;1261;60510;-84
2023/06/19 06:59:49;;;;;;;;;;;;;;;24.77;42.90;101204.55;107245;1260;61376;-84
2023/06/19 07:02:15;;;;;;;;;;;;;;;24.60;43.07;101207.30;106996;1260;125538;-84
2023/06/19 07:04:47;;;;;;;;;;;;;;;24.50;43.10;101209.36;106820;1261;61430;-84
2023/06/19 07:07:13;;;;;;;;;;;;;;;24.47;43.30;101213.91;106878;1260;124450;-84
2023/06/19 07:09:41;;;;;;;;;;;;;;;24.51;43.86;101217.05;106868;1260;61264;-84
2023/06/19 07:12:09;;;;;;;;;;;;;;;24.56;44.13;101219.27;106947;1260;124958;-84
2023/06/19 07:14:42;;;;;;;;;;;;;;;24.55;43.74;101225.58;107274;1260;67506;-84
2023/06/19 07:17:08;;;;;;;;;;;;;;;24.53;43.52;101225.45;107017;1260;73375;-85
2023/06/19 07:19:34;;;;;;;;;;;;;;;24.48;43.79;101225.55;106897;1260;124256;-84
2023/06/19 07:22:09;;;;;;;;;;;;;;;24.50;44.24;101225.31;106833;1261;60083;-84
2023/06/19 07:24:42;;;;;;;;;;;;;;;24.56;44.39;101225.00;106986;1260;124489;-85
2023/06/19 07:27:11;;;;;;;;;;;;;;;24.56;44.21;101226.25;106667;1260;65181;-84
2023/06/19 07:29:37;;;;;;;;;;;;;;;24.55;44.26;101227.71;106677;1264;72663;-84
2023/06/19 07:32:05;;;;;;;;;;;;;;;24.53;43.99;101230.28;106775;1264;124440;-84
2023/06/19 07:34:32;;;;;;;;;;;;;;;24.53;44.22;101231.71;106812;1260;60033;-84
2023/06/19 07:36:58;;;;;;;;;;;;;;;24.57;44.12;101236.29;106945;1261;125009;-84
2023/06/19 07:39:25;;;;;;;;;;;;;;;24.58;43.99;101238.77;107059;1260;61293;-85
2023/06/19 07:41:52;;;;;;;;;;;;;;;24.58;43.77;101233.23;106897;1262;71803;-84
2023/06/19 07:44:30;;;;;;;;;;;;;;;24.52;43.74;101236.04;107175;1260;125329;-84
2023/06/19 07:46:56;;;;;;;;;;;;;;;24.49;43.97;101235.20;107257;1261;61513;-85
2023/06/19 07:49:23;;;;;;;;;;;;;;;24.48;44.23;101236.30;107571;1260;124747;-84
2023/06/19 07:51:49;;;;;;;;;;;;;;;24.46;44.08;101237.42;107573;1260;59986;-85
2023/06/19 07:54:20;;;;;;;;;;;;;;;24.46;44.28;101241.91;107200;1261;124503;-84
2023/06/19 07:56:47;;;;;;;;;;;;;;;24.50;44.24;101244.50;107328;1261;61313;-85
2023/06/19 07:59:14;;;;;;;;;;;;;;;24.53;44.44;101242.83;107085;1260;61406;-85
2023/06/19 08:01:40;;;;;;;;;;;;;;;24.64;44.67;101247.41;106879;1260;124890;-85
2023/06/19 08:04:06;;;;;;;;;;;;;;;24.80;44.71;101246.66;107144;1260;62227;-86
2023/06/19 08:06:32;;;;;;;;;;;;;;;24.93;44.89;101244.49;107025;1261;124520;-83
2023/06/19 08:09:01;;;;;;;;;;;;;;;25.08;44.82;101245.54;107170;1260;61229;-83
2023/06/19 08:11:28;;;;;;;;;;;;;;;25.19;44.64;101244.68;106931;1260;61276;-84
2023/06/19 08:13:55;;;;;;;;;;;;;;;25.31;44.65;101244.56;106868;1260;124465;-84
2023/06/19 08:16:24;;;;;;;;;;;;;;;25.47;44.34;101239.26;107318;1260;64826;-84
2023/06/19 08:18:51;;;;;;;;;;;;;;;25.61;44.03;101238.67;107101;1261;125579;-84
2023/06/19 08:21:17;;;;;;;;;;;;;;;25.84;44.37;101234.04;107114;1261;60071;-86
2023/06/19 08:23:44;;;;;;;;;;;;;;;26.14;44.50;101240.64;107440;1260;60645;-86
2023/06/19 08:26:19;;;;;;;;;;;;;;;26.40;44.03;101234.42;106775;1261;124558;-85
2023/06/19 08:28:46;;;;;;;;;;;;;;;26.61;43.67;101239.66;106953;1261;67119;-84
2023/06/19 08:31:14;;;;;;;;;;;;;;;26.83;43.42;101240.91;106984;1260;124828;-85
2023/06/19 08:33:50;;;;;;;;;;;;;;;27.05;43.19;101239.94;107160;1260;61240;-87
2023/06/19 08:36:18;;;;;;;;;;;;;;;27.30;43.07;101240.67;107042;1260;124601;-85
2023/06/19 08:38:44;;;;;;;;;;;;;;;27.59;42.93;101246.27;107159;1260;61248;-86
2023/06/19 08:41:18;;;;;;;;;;;;;;;27.88;42.83;101244.28;107359;1263;61014;-84
2023/06/19 08:43:47;;;;;;;;;;;;;;;28.14;42.62;101249.77;106839;1260;124310;-85
2023/06/19 08:46:24;;;;;;;;;;;;;;;28.39;42.19;101244.59;107022;1261;61373;-85
2023/06/19 08:49:00;;;;;;;;;;;;;;;28.56;41.72;101244.44;106956;1260;124840;-85
2023/06/19 08:51:28;;;;;;;;;;;;;;;28.65;41.54;101244.21;107074;1260;73938;-86
2023/06/19 08:53:55;;;;;;;;;;;;;;;28.71;41.35;101243.80;107228;1260;66959;-85
2023/06/19 08:56:21;;;;;;;;;;;;;;;28.77;41.34;101242.48;106966;1261;124090;-82
2023/06/19 08:58:48;;;;;;;;;;;;;;;28.76;41.47;101241.23;106253;1261;1304361;-83
2023/06/19 09:01:19;;;;;;;;;;;;;;;28.65;41.60;101239.52;107107;1260;124689;-83
2023/06/19 09:03:46;;;;;;;;;;;;;;;28.66;41.59;101237.16;106975;1262;74977;-83
2023/06/19 09:06:16;;;;;;;;;;;;;;;28.72;41.30;101235.28;106878;1260;125048;-83
2023/06/19 09:08:42;;;;;;;;;;;;;;;28.70;41.27;101234.81;107051;1264;71401;-82
2023/06/19 09:11:08;;;;;;;;;;;;;;;28.62;40.94;101230.45;107000;1262;60872;-82
2023/06/19 09:13:36;;;;;;;;;;;;;;;28.49;41.13;101228.83;107140;1260;125251;-82
2023/06/19 09:16:06;;;;;;;;;;;;;;;28.39;41.07;101227.23;107206;1264;74883;-82
2023/06/19 09:18:42;;;;;;;;;;;;;;;28.35;41.30;101224.34;106977;1260;124740;-82
2023/06/19 09:21:14;;;;;;;;;;;;;;;28.36;41.00;101223.94;107034;1260;72479;-83
2023/06/19 09:23:42;;;;;;;;;;;;;;;28.32;40.82;101222.49;106966;1260;61233;-82
2023/06/19 09:26:08;;;;;;;;;;;;;;;28.27;40.59;101227.94;106942;1260;124389;-83
2023/06/19 09:28:39;;;;;;;;;;;;;;;28.17;40.53;101230.30;107233;1260;60872;-83
2023/06/19 09:31:05;;;;;;;;;;;;;;;28.07;40.21;101226.73;107113;1260;124589;-82
2023/06/19 09:33:46;;;;;;;;;;;;;;;27.98;40.50;101226.41;106929;1260;59810;-84
2023/06/19 09:36:12;;;;;;;;;;;;;;;27.93;40.46;101226.25;106802;1260;125095;-84
2023/06/19 09:38:42;;;;;;;;;;;;;;;27.84;40.47;101224.00;107148;1260;61238;-86
2023/06/19 09:41:09;;;;;;;;;;;;;;;27.78;40.45;101224.80;107091;1260;74412;-84
2023/06/19 09:43:37;;;;;;;;;;;;;;;27.77;40.62;101225.58;107211;1261;124438;-86
2023/06/19 09:46:13;;;;;;;;;;;;;;;27.74;40.33;101223.52;108558;1265;71527;-84
2023/06/19 09:48:46;;;;;;;;;;;;;;;27.72;40.36;101217.11;107253;1260;124724;-83
2023/06/19 09:51:20;;;;;;;;;;;;;;;27.76;40.36;101216.77;107182;1261;60481;-82
2023/06/19 09:53:49;;;;;;;;;;;;;;;27.82;40.28;101218.86;107096;1261;73639;-82
2023/06/19 09:56:28;;;;;;;;;;;;;;;27.83;40.06;101215.04;106891;1260;124372;-84
2023/06/19 09:58:59;;;;;;;;;;;;;;;27.81;40.34;101213.86;106881;1260;71383;-84
2023/06/19 10:01:32;;;;;;;;;;;;;;;27.78;40.02;101214.19;107012;1260;124748;-84
2023/06/19 10:04:13;;;;;;;;;;;;;;;27.71;39.86;101216.25;106785;1260;59767;-85
2023/06/19 10:06:44;;;;;;;;;;;;;;;27.61;39.95;101214.11;106985;1260;124816;-82
2023/06/19 10:09:11;;;;;;;;;;;;;;;27.60;39.88;101215.07;107050;1260;65972;-83
2023/06/19 10:11:45;;;;;;;;;;;;;;;27.58;40.09;101207.20;107117;1261;71372;-83
2023/06/19 10:14:13;;;;;;;;;;;;;;;27.56;39.89;101205.63;107330;1260;124542;-83
2023/06/19 10:16:43;;;;;;;;;;;;;;;27.71;40.01;101209.02;107403;1261;60176;-82
2023/06/19 10:19:22;;;;;;;;;;;;;;;27.84;39.98;101205.08;107215;1261;124350;-83
2023/06/19 10:21:49;;;;;;;;;;;;;;;27.98;39.70;101203.48;107045;1260;67587;-83
2023/06/19 10:24:18;;;;;;;;;;;;;;;28.10;39.57;101201.00;107281;1260;124924;-82
2023/06/19 10:26:44;;;;;;;;;;;;;;;28.21;39.49;101200.38;107145;1262;59996;-83
2023/06/19 10:29:17;;;;;;;;;;;;;;;28.28;39.38;101198.64;107337;1260;61470;-82
2023/06/19 10:31:56;;;;;;;;;;;;;;;28.35;39.21;101198.52;107263;1260;74728;-82
2023/06/19 10:34:32;;;;;;;;;;;;;;;28.50;39.04;101195.91;107143;1260;67987;-83
2023/06/19 10:37:00;;;;;;;;;;;;;;;28.65;38.99;101193.31;106909;1260;124723;-83
2023/06/19 10:39:26;;;;;;;;;;;;;;;28.76;38.82;101192.83;107413;1260;59987;-83
2023/06/19 10:41:53;;;;;;;;;;;;;;;28.86;38.66;101189.85;107145;1265;60823;-83
2023/06/19 10:44:20;;;;;;;;;;;;;;;28.93;38.57;101188.99;107270;1260;124731;-83
2023/06/19 10:46:47;;;;;;;;;;;;;;;29.02;38.60;101189.13;107037;1260;59837;-85
2023/06/19 10:49:13;;;;;;;;;;;;;;;29.07;38.67;101190.71;106998;1261;124391;-82
2023/06/19 10:51:41;;;;;;;;;;;;;;;29.12;38.56;101188.70;107348;1260;61366;-83
2023/06/19 10:54:07;;;;;;;;;;;;;;;29.08;38.28;101189.04;107169;1260;124949;-82
2023/06/19 10:56:34;;;;;;;;;;;;;;;28.97;38.38;101181.96;107120;1260;60221;-82
2023/06/19 10:59:05;;;;;;;;;;;;;;;28.83;38.25;101185.98;107157;1260;71426;-82
2023/06/19 11:01:33;;;;;;;;;;;;;;;28.73;38.49;101185.90;108252;1260;124582;-83
2023/06/19 11:04:02;;;;;;;;;;;;;;;28.64;38.51;101191.20;107023;1259;62336;-85
2023/06/19 11:06:28;;;;;;;;;;;;;;;28.51;38.67;101187.76;106776;1260;124722;-85
2023/06/19 11:08:54;;;;;;;;;;;;;;;28.44;38.73;101189.11;107120;1260;61309;-86
2023/06/19 11:11:22;;;;;;;;;;;;;;;28.36;38.52;101181.89;107297;1261;61558;-85
2023/06/19 11:13:50;;;;;;;;;;;;;;;28.30;38.34;101183.95;107016;1263;124762;-85
2023/06/19 11:16:16;;;;;;;;;;;;;;;28.29;38.52;101188.13;107012;1260;62149;-85
2023/06/19 11:18:45;;;;;;;;;;;;;;;28.26;38.44;101181.39;106970;1260;125969;-85
2023/06/19 11:21:14;;;;;;;;;;;;;;;28.21;38.37;101179.98;107353;1260;75355;-83
2023/06/19 11:23:40;;;;;;;;;;;;;;;28.22;38.47;101179.58;107549;1261;67125;-83
2023/06/19 11:26:07;;;;;;;;;;;;;;;28.24;38.67;101176.08;107257;1261;124760;-83
2023/06/19 11:28:33;;;;;;;;;;;;;;;28.27;38.68;101178.46;107158;1261;61834;-82
2023/06/19 11:31:01;;;;;;;;;;;;;;;28.40;38.78;101181.89;106971;1261;125199;-83
2023/06/19 11:33:29;;;;;;;;;;;;;;;28.50;38.34;101177.50;107119;1261;74619;-82
2023/06/19 11:35:59;;;;;;;;;;;;;;;28.61;38.14;101176.70;106925;1260;66984;-81
2023/06/19 11:38:25;;;;;;;;;;;;;;;28.81;37.98;101176.35;106776;1261;124755;-81
2023/06/19 11:40:54;;;;;;;;;;;;;;;29.02;37.91;101174.51;107228;1260;62144;-81
2023/06/19 11:43:27;;;;;;;;;;;;;;;29.27;37.74;101173.75;106826;1261;124775;-83
2023/06/19 11:45:53;;;;;;;;;;;;;;;29.51;37.79;101172.26;107145;1260;75557;-85
2023/06/19 11:48:28;;;;;;;;;;;;;;;29.71;37.60;101172.08;107181;1261;125191;-85
2023/06/19 11:50:54;;;;;;;;;;;;;;;29.90;37.55;101170.45;107196;1262;72609;-81
2023/06/19 11:53:21;;;;;;;;;;;;;;;30.10;37.42;101167.45;106840;1260;62067;-82
2023/06/19 11:55:47;;;;;;;;;;;;;;;30.25;37.12;101167.60;107035;1260;125112;-82
2023/06/19 11:58:15;;;;;;;;;;;;;;;30.38;36.81;101167.48;107036;1260;61799;-84
2023/06/19 12:00:41;;;;;;;;;;;;;;;30.48;36.54;101166.27;106947;1262;124773;-82
2023/06/19 12:03:09;;;;;;;;;;;;;;;30.58;36.53;101166.46;107274;1260;64535;-82
2023/06/19 12:05:42;;;;;;;;;;;;;;;30.72;36.60;101165.00;107289;1261;62138;-81
2023/06/19 12:08:09;;;;;;;;;;;;;;;30.85;36.50;101162.34;106933;1260;125232;-82
2023/06/19 12:10:35;;;;;;;;;;;;;;;30.96;36.34;101160.48;107256;1260;61109;-81
2023/06/19 12:13:07;;;;;;;;;;;;;;;31.09;36.04;101160.52;107352;1261;124569;-82
2023/06/19 12:15:35;;;;;;;;;;;;;;;31.15;35.80;101159.80;107414;1262;64640;-84
2023/06/19 12:18:01;;;;;;;;;;;;;;;31.14;35.45;101156.79;107152;1261;60166;-86
2023/06/19 12:20:28;;;;;;;;;;;;;;;31.16;35.30;101156.69;107003;1259;125116;-83
2023/06/19 12:23:02;;;;;;;;;;;;;;;31.08;35.14;101157.88;107408;1263;61767;-86
2023/06/19 12:25:30;;;;;;;;;;;;;;;30.95;35.12;101157.11;107180;1260;125308;-82
2023/06/19 12:27:58;;;;;;;;;;;;;;;30.99;35.23;101155.81;107120;1259;64126;-86
2023/06/19 12:30:24;;;;;;;;;;;;;;;31.08;35.09;101157.16;107026;1260;124617;-84